Time;durP1;ratioP1;P1;durP2;ratioP2;P2;SDS_P1;SDS_P2;PMS_P1;PMS_P2;Temp;Humidity;BMP_temperature;BMP_pressure;BME280_temperature;BME280_humidity;BME280_pressure;Samples;Min_cycle;Max_cycle;Signal;HPM_P1;HPM_P2
2023/10/19 00:01:28;;;;;;;28.40;13.17;;;;;;;;;;5013770;28;20235;-50
2023/10/19 00:03:59;;;;;;;29.77;13.13;;;;;;;;;;5013466;28;20737;-52
2023/10/19 00:06:26;;;;;;;29.70;12.83;;;;;;;;;;5013822;28;20699;-49
2023/10/19 00:08:53;;;;;;;31.17;15.43;;;;;;;;;;5013741;28;20304;-49
2023/10/19 00:11:25;;;;;;;30.60;14.13;;;;;;;;;;5013789;28;20232;-49
2023/10/19 00:13:54;;;;;;;26.23;12.53;;;;;;;;;;5013407;28;20193;-49
2023/10/19 00:16:35;;;;;;;23.90;11.90;;;;;;;;;;5013639;28;20241;-50
2023/10/19 00:19:03;;;;;;;28.47;11.63;;;;;;;;;;5013356;28;20659;-49
2023/10/19 00:21:43;;;;;;;23.37;10.77;;;;;;;;;;5013260;28;20213;-52
2023/10/19 00:24:10;;;;;;;22.80;10.90;;;;;;;;;;5013255;28;20255;-53
2023/10/19 00:26:40;;;;;;;26.00;11.87;;;;;;;;;;5013354;28;20237;-50
2023/10/19 00:31:53;;;;;;;44.53;23.53;;;;;;;;;;5011904;28;20300;-50
2023/10/19 00:34:21;;;;;;;182.27;94.67;;;;;;;;;;5012156;28;20205;-50
2023/10/19 00:36:50;;;;;;;113.20;61.90;;;;;;;;;;5012041;28;20205;-52
2023/10/19 00:39:21;;;;;;;215.83;128.43;;;;;;;;;;5013044;28;20205;-52
2023/10/19 00:41:49;;;;;;;72.50;45.93;;;;;;;;;;5011949;28;20224;-51
2023/10/19 00:44:22;;;;;;;83.40;51.20;;;;;;;;;;5012810;28;20544;-52
2023/10/19 00:47:03;;;;;;;92.77;48.87;;;;;;;;;;5013109;28;20216;-49
2023/10/19 00:49:32;;;;;;;56.67;31.90;;;;;;;;;;5011962;28;20194;-49
2023/10/19 00:52:03;;;;;;;52.27;29.43;;;;;;;;;;5011669;28;20240;-52
2023/10/19 00:54:42;;;;;;;43.70;20.60;;;;;;;;;;5012439;28;20201;-49
2023/10/19 00:57:12;;;;;;;34.70;15.93;;;;;;;;;;5012984;28;20602;-49
2023/10/19 00:59:53;;;;;;;30.50;14.23;;;;;;;;;;5012534;28;20201;-52
2023/10/19 01:02:21;;;;;;;33.43;16.77;;;;;;;;;;5011401;28;20220;-50
2023/10/19 01:04:50;;;;;;;39.10;17.30;;;;;;;;;;4978063;28;20484;-49
2023/10/19 01:07:27;;;;;;;34.33;15.37;;;;;;;;;;5011464;28;20255;-53
2023/10/19 01:09:56;;;;;;;47.07;24.40;;;;;;;;;;5011668;28;20198;-51
2023/10/19 01:15:05;;;;;;;39.40;21.53;;;;;;;;;;5012373;28;20638;-52
2023/10/19 01:17:40;;;;;;;39.23;18.27;;;;;;;;;;5012587;28;20197;-48
2023/10/19 01:23:41;;;;;;;57.50;30.97;;;;;;;;;;5012240;28;20205;-50
2023/10/19 01:28:43;;;;;;;56.77;30.00;;;;;;;;;;5012238;28;20251;-51
2023/10/19 01:34:06;;;;;;;28.57;13.33;;;;;;;;;;5011492;28;20205;-50
2023/10/19 01:36:43;;;;;;;32.97;13.67;;;;;;;;;;5011170;28;20213;-50
2023/10/19 01:39:11;;;;;;;27.40;12.83;;;;;;;;;;5011971;28;20213;-54
2023/10/19 01:41:41;;;;;;;25.60;12.40;;;;;;;;;;5010760;28;20205;-53
2023/10/19 01:44:13;;;;;;;28.20;12.60;;;;;;;;;;5012132;28;20205;-50
2023/10/19 01:46:43;;;;;;;26.30;12.30;;;;;;;;;;5011862;28;20205;-52
2023/10/19 01:49:11;;;;;;;23.67;12.43;;;;;;;;;;5012012;28;20202;-54
2023/10/19 01:51:39;;;;;;;28.00;12.67;;;;;;;;;;5010764;28;20745;-53
2023/10/19 01:54:07;;;;;;;27.97;13.83;;;;;;;;;;5011047;28;20205;-51
2023/10/19 01:56:35;;;;;;;28.93;13.33;;;;;;;;;;5011983;28;20205;-52
2023/10/19 01:59:04;;;;;;;29.03;12.07;;;;;;;;;;4974025;28;20198;-52
2023/10/19 02:01:32;;;;;;;32.03;14.33;;;;;;;;;;4974337;28;20205;-53
2023/10/19 02:04:05;;;;;;;32.00;13.00;;;;;;;;;;4959028;28;20205;-50
2023/10/19 02:09:16;;;;;;;28.13;14.20;;;;;;;;;;4977829;28;20210;-53
2023/10/19 02:11:47;;;;;;;29.30;14.03;;;;;;;;;;4996305;28;20225;-49
2023/10/19 02:14:20;;;;;;;35.07;15.10;;;;;;;;;;4978796;28;20194;-52
2023/10/19 02:16:51;;;;;;;29.53;14.97;;;;;;;;;;4979012;28;20234;-53
2023/10/19 02:19:20;;;;;;;32.97;14.80;;;;;;;;;;4996455;28;20198;-50
2023/10/19 02:21:56;;;;;;;34.67;15.83;;;;;;;;;;4996073;28;20221;-49
2023/10/19 02:24:25;;;;;;;35.73;15.60;;;;;;;;;;4995858;28;20205;-52
2023/10/19 02:26:55;;;;;;;38.83;18.77;;;;;;;;;;4978159;28;20237;-48
2023/10/19 02:29:24;;;;;;;33.03;16.37;;;;;;;;;;4996197;28;20205;-56
2023/10/19 02:31:51;;;;;;;54.47;28.13;;;;;;;;;;4978503;28;20253;-49
2023/10/19 02:34:18;;;;;;;44.47;19.33;;;;;;;;;;4995864;28;20260;-52
2023/10/19 02:36:47;;;;;;;34.83;16.03;;;;;;;;;;4996136;28;20235;-53
2023/10/19 02:39:15;;;;;;;34.57;16.97;;;;;;;;;;4995611;28;20201;-53
2023/10/19 02:41:45;;;;;;;48.40;19.17;;;;;;;;;;4978158;28;20689;-50
2023/10/19 02:46:45;;;;;;;43.73;17.30;;;;;;;;;;4995451;28;20268;-52
2023/10/19 02:49:15;;;;;;;35.30;17.03;;;;;;;;;;4978160;28;20217;-54
2023/10/19 02:51:45;;;;;;;38.20;16.87;;;;;;;;;;4995582;28;20228;-50
2023/10/19 02:54:20;;;;;;;34.17;16.70;;;;;;;;;;4995559;28;20202;-52
2023/10/19 02:56:49;;;;;;;41.93;17.27;;;;;;;;;;4978474;28;20202;-55
2023/10/19 02:59:24;;;;;;;40.53;15.17;;;;;;;;;;4978008;28;20202;-52
2023/10/19 03:02:01;;;;;;;34.97;16.27;;;;;;;;;;4995134;28;20209;-52
2023/10/19 03:04:29;;;;;;;39.17;16.93;;;;;;;;;;4995359;28;20190;-52
2023/10/19 03:06:57;;;;;;;38.93;15.83;;;;;;;;;;4995077;28;20708;-52
2023/10/19 03:12:04;;;;;;;37.33;16.43;;;;;;;;;;4995005;28;20226;-50
2023/10/19 03:14:32;;;;;;;37.47;17.10;;;;;;;;;;4977991;28;20543;-50
2023/10/19 03:17:00;;;;;;;41.73;17.27;;;;;;;;;;4977350;28;20574;-52
2023/10/19 03:19:28;;;;;;;39.43;17.90;;;;;;;;;;4994481;28;20667;-51
2023/10/19 03:21:55;;;;;;;36.87;16.60;;;;;;;;;;4994942;28;20266;-49
2023/10/19 03:24:35;;;;;;;43.40;18.90;;;;;;;;;;4977844;28;20202;-53
2023/10/19 03:27:13;;;;;;;42.27;18.10;;;;;;;;;;4977023;28;20244;-50
2023/10/19 03:29:46;;;;;;;39.40;18.57;;;;;;;;;;4994552;28;20201;-50
2023/10/19 03:32:14;;;;;;;52.13;21.37;;;;;;;;;;5007020;28;20296;-52
2023/10/19 03:34:47;;;;;;;38.47;16.47;;;;;;;;;;5033596;28;20684;-51
2023/10/19 03:37:16;;;;;;;40.13;17.03;;;;;;;;;;5016260;28;20200;-55
2023/10/19 03:39:46;;;;;;;43.33;18.73;;;;;;;;;;5016489;28;20205;-56
2023/10/19 03:42:14;;;;;;;38.00;16.60;;;;;;;;;;5031693;28;20216;-55
2023/10/19 03:44:53;;;;;;;40.17;17.43;;;;;;;;;;5014128;28;20228;-54
2023/10/19 03:47:20;;;;;;;35.63;16.27;;;;;;;;;;4996422;28;20189;-52
2023/10/19 03:49:51;;;;;;;54.03;23.57;;;;;;;;;;5013294;28;20209;-52
2023/10/19 03:54:47;;;;;;;38.87;17.10;;;;;;;;;;5014011;28;20201;-53
2023/10/19 03:57:19;;;;;;;41.43;15.20;;;;;;;;;;4995928;28;20225;-54
2023/10/19 03:59:52;;;;;;;33.47;16.13;;;;;;;;;;4978392;28;20237;-52
2023/10/19 04:02:35;;;;;;;36.93;16.40;;;;;;;;;;4987337;28;20225;-50
2023/10/19 04:05:03;;;;;;;38.23;16.73;;;;;;;;;;5012087;28;20255;-54
2023/10/19 04:07:31;;;;;;;39.80;17.30;;;;;;;;;;5012651;28;20225;-51
2023/10/19 04:12:36;;;;;;;45.20;18.77;;;;;;;;;;5012538;28;20244;-50
2023/10/19 04:15:14;;;;;;;46.77;18.60;;;;;;;;;;5012219;28;20752;-52
2023/10/19 04:17:42;;;;;;;35.83;17.03;;;;;;;;;;5012890;28;20575;-49
2023/10/19 04:22:50;;;;;;;36.47;17.60;;;;;;;;;;5012531;28;20229;-51
2023/10/19 04:25:36;;;;;;;54.83;20.70;;;;;;;;;;5012053;28;20628;-49
2023/10/19 04:28:04;;;;;;;36.30;17.00;;;;;;;;;;5011955;28;20244;-52
2023/10/19 04:30:33;;;;;;;52.13;18.83;;;;;;;;;;5010992;28;20520;-55
2023/10/19 04:33:01;;;;;;;39.13;16.77;;;;;;;;;;5011630;28;20237;-52
2023/10/19 04:35:34;;;;;;;39.23;16.90;;;;;;;;;;5012165;28;20295;-55
2023/10/19 04:38:06;;;;;;;43.63;20.33;;;;;;;;;;5011721;28;20702;-53
2023/10/19 04:40:33;;;;;;;91.20;30.83;;;;;;;;;;5012181;28;20574;-53
2023/10/19 04:43:04;;;;;;;122.57;40.93;;;;;;;;;;5011704;28;20245;-56
2023/10/19 04:45:31;;;;;;;132.43;45.70;;;;;;;;;;5011658;28;20217;-56
2023/10/19 04:47:58;;;;;;;121.43;36.97;;;;;;;;;;5016884;28;20227;-60
2023/10/19 04:50:26;;;;;;;194.50;51.70;;;;;;;;;;5022458;28;20229;-55
2023/10/19 04:52:53;;;;;;;87.20;28.63;;;;;;;;;;5020142;28;20229;-53
2023/10/19 04:55:21;;;;;;;72.80;27.03;;;;;;;;;;5011910;28;20319;-54
2023/10/19 04:57:49;;;;;;;40.13;17.43;;;;;;;;;;5011899;28;20279;-58
2023/10/19 05:00:18;;;;;;;55.20;20.37;;;;;;;;;;5011971;28;20256;-55
2023/10/19 05:02:46;;;;;;;62.87;22.30;;;;;;;;;;5012298;28;20234;-56
2023/10/19 05:05:16;;;;;;;42.10;17.37;;;;;;;;;;5016832;28;20218;-52
2023/10/19 05:07:44;;;;;;;118.17;33.60;;;;;;;;;;5018865;28;20217;-55
2023/10/19 05:10:12;;;;;;;139.70;39.17;;;;;;;;;;5020382;28;20216;-56
2023/10/19 05:12:39;;;;;;;99.07;31.27;;;;;;;;;;5022331;28;20323;-56
2023/10/19 05:15:06;;;;;;;166.83;61.53;;;;;;;;;;5020151;28;20256;-58
2023/10/19 05:17:33;;;;;;;39.40;18.67;;;;;;;;;;5019804;28;20771;-56
2023/10/19 05:20:01;;;;;;;35.87;15.10;;;;;;;;;;5020553;28;20222;-58
2023/10/19 05:22:32;;;;;;;44.90;16.63;;;;;;;;;;5022234;28;20468;-55
2023/10/19 05:25:01;;;;;;;30.57;14.43;;;;;;;;;;5011807;28;20256;-54
2023/10/19 05:27:28;;;;;;;37.00;16.00;;;;;;;;;;5011326;28;20682;-59
2023/10/19 05:29:56;;;;;;;49.27;18.07;;;;;;;;;;5011959;28;20201;-56
2023/10/19 05:32:24;;;;;;;141.57;47.00;;;;;;;;;;5010981;28;20592;-52
2023/10/19 05:34:52;;;;;;;108.27;35.83;;;;;;;;;;5012216;28;20202;-55
2023/10/19 05:37:19;;;;;;;41.17;17.30;;;;;;;;;;5012077;28;20201;-54
2023/10/19 05:39:47;;;;;;;36.27;15.37;;;;;;;;;;5011979;28;20701;-52
2023/10/19 05:42:14;;;;;;;37.03;15.50;;;;;;;;;;5011678;28;20566;-53
2023/10/19 05:44:41;;;;;;;32.67;14.80;;;;;;;;;;5011998;28;20277;-56
2023/10/19 05:47:08;;;;;;;48.53;18.40;;;;;;;;;;5012101;28;20213;-53
2023/10/19 05:49:35;;;;;;;60.20;20.73;;;;;;;;;;5011996;28;20201;-55
2023/10/19 05:52:03;;;;;;;29.57;14.80;;;;;;;;;;5011582;28;20566;-52
2023/10/19 05:54:30;;;;;;;32.00;14.73;;;;;;;;;;5011898;28;20491;-55
2023/10/19 05:56:58;;;;;;;43.97;16.47;;;;;;;;;;5011814;28;20209;-55
2023/10/19 05:59:26;;;;;;;43.73;16.27;;;;;;;;;;5011811;28;20197;-54
2023/10/19 06:01:53;;;;;;;33.67;15.87;;;;;;;;;;5012007;28;20201;-54
2023/10/19 06:04:21;;;;;;;37.47;16.10;;;;;;;;;;5011977;28;20205;-54
2023/10/19 06:06:48;;;;;;;38.77;15.20;;;;;;;;;;5011929;28;20209;-53
2023/10/19 06:09:17;;;;;;;34.20;15.40;;;;;;;;;;5011716;28;20214;-57
2023/10/19 06:11:45;;;;;;;37.83;15.93;;;;;;;;;;5011780;28;20205;-56
2023/10/19 06:14:13;;;;;;;35.53;15.97;;;;;;;;;;5012109;28;20213;-56
2023/10/19 06:16:40;;;;;;;141.80;49.50;;;;;;;;;;5011922;28;20209;-54
2023/10/19 06:19:08;;;;;;;82.70;29.53;;;;;;;;;;5012064;28;20198;-55
2023/10/19 06:21:36;;;;;;;149.57;40.77;;;;;;;;;;5011986;28;20197;-53
2023/10/19 06:24:04;;;;;;;60.97;22.20;;;;;;;;;;5011459;28;20205;-56
2023/10/19 06:26:31;;;;;;;44.23;17.40;;;;;;;;;;5011162;28;20638;-54
2023/10/19 06:28:59;;;;;;;36.03;17.13;;;;;;;;;;5011834;28;20216;-54
2023/10/19 06:31:28;;;;;;;39.47;17.13;;;;;;;;;;5011807;28;20198;-56
2023/10/19 06:33:57;;;;;;;40.70;16.13;;;;;;;;;;5011513;28;20221;-54
2023/10/19 06:36:25;;;;;;;38.60;16.53;;;;;;;;;;5011601;28;20285;-54
2023/10/19 06:38:54;;;;;;;47.80;19.17;;;;;;;;;;5011597;28;20205;-57
2023/10/19 06:41:22;;;;;;;31.97;14.47;;;;;;;;;;5011603;28;20201;-55
2023/10/19 06:43:50;;;;;;;63.53;19.43;;;;;;;;;;5011631;28;20206;-55
2023/10/19 06:46:17;;;;;;;53.23;18.77;;;;;;;;;;5011643;28;20300;-55
2023/10/19 06:48:45;;;;;;;39.20;16.37;;;;;;;;;;5011440;28;20205;-57
2023/10/19 06:51:12;;;;;;;29.73;14.10;;;;;;;;;;5011771;28;20272;-54
2023/10/19 06:53:39;;;;;;;32.43;15.17;;;;;;;;;;5013194;28;20237;-52
2023/10/19 06:56:06;;;;;;;50.67;16.50;;;;;;;;;;5014911;28;20296;-55
2023/10/19 06:58:34;;;;;;;32.13;15.43;;;;;;;;;;5014964;28;20216;-58
2023/10/19 07:01:10;;;;;;;31.43;13.63;;;;;;;;;;5015351;28;20208;-54
2023/10/19 07:03:38;;;;;;;36.80;15.23;;;;;;;;;;5014963;28;20232;-58
2023/10/19 07:06:07;;;;;;;32.10;12.57;;;;;;;;;;5014618;28;20229;-58
2023/10/19 07:08:41;;;;;;;25.80;12.63;;;;;;;;;;5015078;28;20209;-55
2023/10/19 07:11:09;;;;;;;23.83;11.67;;;;;;;;;;5014656;28;20216;-58
2023/10/19 07:13:36;;;;;;;39.10;14.77;;;;;;;;;;5014625;28;20230;-54
2023/10/19 07:16:04;;;;;;;23.67;11.73;;;;;;;;;;5014829;28;20201;-56
2023/10/19 07:18:32;;;;;;;39.93;16.77;;;;;;;;;;5014447;28;20205;-52
2023/10/19 07:21:05;;;;;;;31.27;13.07;;;;;;;;;;5014679;28;20297;-55
2023/10/19 07:23:32;;;;;;;20.80;11.10;;;;;;;;;;5014621;28;20205;-54
2023/10/19 07:25:59;;;;;;;24.43;12.00;;;;;;;;;;5014641;28;20555;-56
2023/10/19 07:28:27;;;;;;;24.77;11.65;;;;;;;;;;5014612;28;20212;-52
2023/10/19 07:31:01;;;;;;;25.20;11.87;;;;;;;;;;5014338;28;20264;-55
2023/10/19 07:33:29;;;;;;;22.20;10.93;;;;;;;;;;5014463;28;20236;-53
2023/10/19 07:35:59;;;;;;;23.30;11.13;;;;;;;;;;5014435;28;20651;-55
2023/10/19 07:38:28;;;;;;;22.13;10.20;;;;;;;;;;5014376;28;20713;-57
2023/10/19 07:40:56;;;;;;;26.80;14.80;;;;;;;;;;5014553;28;20236;-52
2023/10/19 07:43:25;;;;;;;32.95;14.85;;;;;;;;;;5013982;28;20575;-57
2023/10/19 07:45:52;;;;;;;22.95;11.25;;;;;;;;;;5014214;28;20205;-59
2023/10/19 07:48:20;;;;;;;28.45;12.77;;;;;;;;;;5014112;28;20202;-57
2023/10/19 07:50:47;;;;;;;19.13;9.77;;;;;;;;;;5013777;28;20263;-55
2023/10/19 07:53:15;;;;;;;19.00;9.47;;;;;;;;;;5014315;28;20251;-57
2023/10/19 07:55:43;;;;;;;14.85;8.50;;;;;;;;;;5013632;28;20201;-56
2023/10/19 07:58:11;;;;;;;15.02;8.55;;;;;;;;;;5014010;28;20232;-57
2023/10/19 08:00:38;;;;;;;18.60;10.40;;;;;;;;;;5013650;28;20572;-54
2023/10/19 08:03:06;;;;;;;15.75;8.68;;;;;;;;;;5013804;28;20209;-56
2023/10/19 08:05:35;;;;;;;15.40;8.63;;;;;;;;;;5013695;28;20215;-58
2023/10/19 08:08:05;;;;;;;17.40;8.50;;;;;;;;;;5013634;28;20267;-58
2023/10/19 08:10:36;;;;;;;15.85;7.40;;;;;;;;;;5013406;28;20777;-59
2023/10/19 08:13:04;;;;;;;16.23;8.10;;;;;;;;;;5012629;28;20213;-55
2023/10/19 08:15:31;;;;;;;16.95;7.65;;;;;;;;;;5013712;28;20228;-58
2023/10/19 08:17:58;;;;;;;18.35;7.60;;;;;;;;;;5013895;28;20201;-57
2023/10/19 08:20:31;;;;;;;14.73;7.40;;;;;;;;;;5013592;28;20604;-56
2023/10/19 08:23:01;;;;;;;16.55;7.57;;;;;;;;;;5013420;28;20209;-56
2023/10/19 08:25:29;;;;;;;14.60;7.05;;;;;;;;;;5013497;28;20205;-55
2023/10/19 08:28:01;;;;;;;14.18;6.55;;;;;;;;;;5013373;28;20233;-57
2023/10/19 08:30:28;;;;;;;17.30;6.95;;;;;;;;;;5013368;28;20241;-56
2023/10/19 08:32:57;;;;;;;13.95;7.57;;;;;;;;;;5012996;28;20610;-57
2023/10/19 08:35:25;;;;;;;10.85;6.32;;;;;;;;;;5013302;28;20209;-57
2023/10/19 08:37:54;;;;;;;20.70;11.55;;;;;;;;;;5012965;28;20220;-57
2023/10/19 08:40:24;;;;;;;20.77;8.88;;;;;;;;;;5013161;28;20252;-56
2023/10/19 08:42:51;;;;;;;14.10;7.10;;;;;;;;;;5011987;28;20201;-57
2023/10/19 08:45:21;;;;;;;8.90;5.57;;;;;;;;;;5013404;28;20284;-57
2023/10/19 08:47:56;;;;;;;10.27;6.22;;;;;;;;;;5013177;28;20225;-57
2023/10/19 08:50:25;;;;;;;10.88;5.45;;;;;;;;;;5013328;28;20205;-58
2023/10/19 08:52:53;;;;;;;9.32;5.38;;;;;;;;;;5013110;28;20225;-56
2023/10/19 08:55:20;;;;;;;9.27;5.55;;;;;;;;;;5012551;28;20561;-58
2023/10/19 08:58:06;;;;;;;7.63;4.70;;;;;;;;;;5012678;28;20666;-58
2023/10/19 09:00:47;;;;;;;7.28;4.30;;;;;;;;;;5012885;28;20600;-56
2023/10/19 09:03:16;;;;;;;11.00;5.00;;;;;;;;;;5012823;28;20201;-57
2023/10/19 09:05:48;;;;;;;10.27;4.75;;;;;;;;;;5012642;28;20578;-56
2023/10/19 09:08:17;;;;;;;6.28;4.25;;;;;;;;;;5013084;28;20244;-56
2023/10/19 09:10:46;;;;;;;9.60;4.90;;;;;;;;;;5012404;28;20209;-57
2023/10/19 09:13:22;;;;;;;9.68;4.93;;;;;;;;;;5012972;28;20232;-55
2023/10/19 09:15:55;;;;;;;8.50;4.57;;;;;;;;;;5011926;28;20657;-56
2023/10/19 09:18:27;;;;;;;9.38;4.72;;;;;;;;;;5012368;28;20541;-56
2023/10/19 09:21:01;;;;;;;10.13;4.70;;;;;;;;;;5012732;28;20202;-55
2023/10/19 09:23:30;;;;;;;7.68;4.70;;;;;;;;;;5012274;28;20220;-57
2023/10/19 09:26:02;;;;;;;8.55;5.32;;;;;;;;;;5012325;28;20229;-58
2023/10/19 09:28:33;;;;;;;7.00;4.40;;;;;;;;;;5012217;28;20288;-59
2023/10/19 09:31:01;;;;;;;12.02;4.47;;;;;;;;;;5012444;28;20567;-56
2023/10/19 09:33:32;;;;;;;8.05;4.63;;;;;;;;;;5012270;28;20717;-56
2023/10/19 09:36:01;;;;;;;7.85;4.50;;;;;;;;;;5011970;28;20227;-57
2023/10/19 09:38:28;;;;;;;8.13;4.53;;;;;;;;;;5011968;28;20682;-57
2023/10/19 09:41:00;;;;;;;5.60;4.05;;;;;;;;;;5012350;28;20259;-55
2023/10/19 09:43:38;;;;;;;9.07;4.80;;;;;;;;;;5012273;28;20263;-57
2023/10/19 09:46:09;;;;;;;8.25;4.90;;;;;;;;;;5012267;28;20584;-57
2023/10/19 09:48:45;;;;;;;8.55;4.32;;;;;;;;;;5012175;28;20197;-56
2023/10/19 09:51:13;;;;;;;7.68;4.28;;;;;;;;;;5012409;28;20567;-56
2023/10/19 09:53:48;;;;;;;11.98;4.47;;;;;;;;;;5012007;28;20251;-59
2023/10/19 09:56:21;;;;;;;8.20;4.43;;;;;;;;;;5011004;28;20650;-56
2023/10/19 09:58:54;;;;;;;8.85;4.35;;;;;;;;;;5011885;28;20667;-56
2023/10/19 10:01:21;;;;;;;7.38;3.95;;;;;;;;;;5010628;28;20662;-54
2023/10/19 10:03:53;;;;;;;6.43;3.83;;;;;;;;;;5011955;28;20197;-54
2023/10/19 10:06:50;;;;;;;6.47;3.90;;;;;;;;;;5012055;28;20750;-54
2023/10/19 10:09:21;;;;;;;60.75;23.17;;;;;;;;;;5011696;28;20206;-56
2023/10/19 10:12:18;;;;;;;29.35;9.85;;;;;;;;;;5011979;28;20201;-57
2023/10/19 10:15:01;;;;;;;97.30;38.25;;;;;;;;;;5011717;28;20233;-54
2023/10/19 10:17:29;;;;;;;39.53;19.60;;;;;;;;;;5011664;28;20209;-56
2023/10/19 10:20:19;;;;;;;52.75;23.20;;;;;;;;;;5011916;28;20205;-57
2023/10/19 10:23:16;;;;;;;21.10;8.68;;;;;;;;;;5011461;28;20213;-52
2023/10/19 10:25:48;;;;;;;15.45;6.40;;;;;;;;;;5011731;28;20201;-53
2023/10/19 10:28:15;;;;;;;10.48;4.80;;;;;;;;;;5013539;28;20240;-56
2023/10/19 10:31:14;;;;;;;8.68;3.88;;;;;;;;;;5014475;28;20212;-57
2023/10/19 10:33:49;;;;;;;16.77;6.40;;;;;;;;;;5014201;28;20231;-58
2023/10/19 10:36:19;;;;;;;19.27;7.15;;;;;;;;;;5015385;28;20204;-58
2023/10/19 10:38:51;;;;;;;6.93;4.05;;;;;;;;;;5015532;28;20252;-58
2023/10/19 10:41:27;;;;;;;13.60;6.93;;;;;;;;;;5015585;28;20566;-55
2023/10/19 10:43:58;;;;;;;8.00;5.15;;;;;;;;;;5015240;28;20643;-59
2023/10/19 10:46:29;;;;;;;10.95;4.50;;;;;;;;;;5015211;28;20228;-59
2023/10/19 10:48:56;;;;;;;13.00;6.95;;;;;;;;;;5015086;28;20206;-58
2023/10/19 10:51:28;;;;;;;12.25;5.75;;;;;;;;;;5015351;28;20213;-53
2023/10/19 10:53:57;;;;;;;11.90;6.07;;;;;;;;;;5015173;28;20232;-55
2023/10/19 10:56:24;;;;;;;10.18;4.93;;;;;;;;;;5015035;28;20356;-57
2023/10/19 10:58:51;;;;;;;9.70;4.75;;;;;;;;;;5015331;28;20197;-60
2023/10/19 11:01:35;;;;;;;10.85;4.47;;;;;;;;;;5015012;28;20210;-57
2023/10/19 11:04:10;;;;;;;7.82;4.50;;;;;;;;;;5014847;28;20296;-57
2023/10/19 11:06:49;;;;;;;7.60;4.05;;;;;;;;;;5014925;28;20204;-58
2023/10/19 11:09:19;;;;;;;8.80;4.53;;;;;;;;;;5015168;28;20220;-56
2023/10/19 11:11:47;;;;;;;9.30;4.30;;;;;;;;;;5014623;28;20681;-56
2023/10/19 11:14:14;;;;;;;9.20;4.80;;;;;;;;;;5014571;28;20718;-60
2023/10/19 11:16:43;;;;;;;9.55;4.78;;;;;;;;;;5014520;28;20766;-57
2023/10/19 11:19:11;;;;;;;8.65;5.05;;;;;;;;;;5014709;28;20205;-59
2023/10/19 11:21:51;;;;;;;10.60;5.07;;;;;;;;;;5014474;28;20205;-57
2023/10/19 11:24:26;;;;;;;8.15;4.53;;;;;;;;;;5014503;28;20206;-59
2023/10/19 11:26:55;;;;;;;7.97;4.00;;;;;;;;;;5014337;28;20233;-55
2023/10/19 11:29:22;;;;;;;10.82;5.18;;;;;;;;;;5014294;28;20264;-53
2023/10/19 11:31:59;;;;;;;7.95;4.65;;;;;;;;;;5014529;28;20209;-58
2023/10/19 11:34:28;;;;;;;10.10;4.55;;;;;;;;;;5014439;28;20268;-57
2023/10/19 11:36:57;;;;;;;9.07;4.22;;;;;;;;;;5014266;28;20221;-55
2023/10/19 11:39:24;;;;;;;8.40;4.47;;;;;;;;;;5013835;28;20205;-59
2023/10/19 11:41:51;;;;;;;8.30;4.40;;;;;;;;;;5014364;28;20534;-57
2023/10/19 11:44:19;;;;;;;6.90;4.20;;;;;;;;;;5014012;28;20706;-56
2023/10/19 11:46:47;;;;;;;7.28;4.15;;;;;;;;;;5020222;28;20546;-57
2023/10/19 11:49:14;;;;;;;9.65;4.45;;;;;;;;;;5022528;28;20232;-54
2023/10/19 11:51:41;;;;;;;8.80;4.85;;;;;;;;;;5020981;28;20214;-56
2023/10/19 11:54:08;;;;;;;8.88;4.43;;;;;;;;;;5019892;28;20316;-56
2023/10/19 11:56:36;;;;;;;8.27;4.53;;;;;;;;;;5017301;28;20224;-58
2023/10/19 11:59:03;;;;;;;8.40;4.05;;;;;;;;;;5022574;28;20202;-55
2023/10/19 12:01:30;;;;;;;7.72;3.80;;;;;;;;;;5021771;28;20194;-58
2023/10/19 12:03:57;;;;;;;9.18;4.43;;;;;;;;;;5023031;28;20202;-54
2023/10/19 12:06:25;;;;;;;7.55;4.15;;;;;;;;;;5023445;28;20558;-52
2023/10/19 12:08:55;;;;;;;7.18;4.05;;;;;;;;;;5013608;28;20617;-52
2023/10/19 12:11:24;;;;;;;7.82;4.18;;;;;;;;;;5023638;28;20197;-54
2023/10/19 12:13:50;;;;;;;7.70;4.22;;;;;;;;;;5024222;28;20285;-56
2023/10/19 12:16:19;;;;;;;17.45;4.72;;;;;;;;;;5021448;28;20212;-54
2023/10/19 12:18:48;;;;;;;7.00;4.05;;;;;;;;;;5006962;28;20240;-55
2023/10/19 12:21:17;;;;;;;9.30;4.78;;;;;;;;;;4993805;28;20218;-58
2023/10/19 12:23:54;;;;;;;9.65;5.15;;;;;;;;;;5012956;28;20229;-54
2023/10/19 12:26:23;;;;;;;10.57;4.43;;;;;;;;;;5001069;28;20245;-54
2023/10/19 12:28:50;;;;;;;10.10;5.38;;;;;;;;;;5022822;28;20232;-56
2023/10/19 12:31:18;;;;;;;10.20;4.82;;;;;;;;;;5020653;28;20619;-53
2023/10/19 12:33:46;;;;;;;8.90;4.25;;;;;;;;;;5017774;28;20229;-53
2023/10/19 12:36:32;;;;;;;8.77;4.60;;;;;;;;;;5025087;28;20212;-55
2023/10/19 12:39:00;;;;;;;6.75;4.18;;;;;;;;;;5016438;28;20233;-58
2023/10/19 12:41:28;;;;;;;9.93;4.75;;;;;;;;;;5010569;28;20588;-59
2023/10/19 12:44:00;;;;;;;8.13;4.15;;;;;;;;;;5014997;28;20217;-52
2023/10/19 12:46:29;;;;;;;6.60;4.63;;;;;;;;;;5010720;28;20687;-56
2023/10/19 12:48:58;;;;;;;8.95;4.20;;;;;;;;;;5011130;28;20237;-57
2023/10/19 12:51:25;;;;;;;7.38;4.30;;;;;;;;;;5010914;28;20222;-52
2023/10/19 12:53:53;;;;;;;8.00;4.20;;;;;;;;;;5012097;28;20260;-52
2023/10/19 12:56:24;;;;;;;8.35;4.03;;;;;;;;;;5011013;28;20217;-55
2023/10/19 12:58:51;;;;;;;9.85;4.65;;;;;;;;;;5008936;28;20557;-53
2023/10/19 13:01:20;;;;;;;8.82;4.68;;;;;;;;;;5011803;28;20233;-55
2023/10/19 13:03:51;;;;;;;21.70;10.25;;;;;;;;;;5011678;28;20718;-53
2023/10/19 13:06:19;;;;;;;14.50;7.70;;;;;;;;;;5011870;28;20229;-58
2023/10/19 13:08:47;;;;;;;33.10;18.40;;;;;;;;;;5011846;28;20228;-54
2023/10/19 13:11:15;;;;;;;9.82;5.05;;;;;;;;;;5012059;28;20280;-57
2023/10/19 13:13:45;;;;;;;8.57;4.40;;;;;;;;;;5011812;28;20663;-57
2023/10/19 13:16:15;;;;;;;8.02;4.38;;;;;;;;;;5011265;28;20710;-58
2023/10/19 13:18:43;;;;;;;9.65;4.38;;;;;;;;;;5011344;28;20312;-58
2023/10/19 13:21:16;;;;;;;7.57;3.85;;;;;;;;;;5011597;28;20221;-57
2023/10/19 13:23:45;;;;;;;9.43;4.40;;;;;;;;;;5011566;28;20586;-57
2023/10/19 13:28:43;;;;;;;10.85;4.78;;;;;;;;;;5010877;28;20698;-53
2023/10/19 13:31:13;;;;;;;8.65;4.45;;;;;;;;;;5011747;28;20232;-49
2023/10/19 13:33:45;;;;;;;7.80;3.80;;;;;;;;;;5010890;28;20225;-53
2023/10/19 13:36:12;;;;;;;18.65;8.30;;;;;;;;;;5011772;28;20230;-54
2023/10/19 13:38:41;;;;;;;31.65;12.20;;;;;;;;;;5011196;28;20542;-57
2023/10/19 13:41:11;;;;;;;30.63;12.05;;;;;;;;;;5010760;28;20217;-57
2023/10/19 13:43:39;;;;;;;31.83;12.50;;;;;;;;;;5007819;28;20213;-58
2023/10/19 13:46:07;;;;;;;26.15;11.55;;;;;;;;;;5009380;28;20602;-58
2023/10/19 13:48:34;;;;;;;19.10;8.68;;;;;;;;;;5010018;28;20379;-53
2023/10/19 13:51:12;;;;;;;10.88;5.50;;;;;;;;;;5010167;28;20227;-52
2023/10/19 13:53:41;;;;;;;28.45;13.10;;;;;;;;;;5009449;28;20590;-49
2023/10/19 13:56:09;;;;;;;59.28;20.77;;;;;;;;;;5011091;28;20237;-56
2023/10/19 13:58:37;;;;;;;31.85;12.93;;;;;;;;;;5010802;28;20710;-58
2023/10/19 14:01:09;;;;;;;38.83;15.38;;;;;;;;;;5010366;28;20295;-53
2023/10/19 14:03:39;;;;;;;38.42;15.18;;;;;;;;;;5015803;28;20271;-52
2023/10/19 14:06:14;;;;;;;39.55;15.88;;;;;;;;;;5015236;28;20605;-55
2023/10/19 14:08:41;;;;;;;47.53;17.70;;;;;;;;;;5030996;28;20785;-49
2023/10/19 14:11:09;;;;;;;37.97;16.30;;;;;;;;;;5037584;28;20268;-55
2023/10/19 14:13:36;;;;;;;30.60;13.60;;;;;;;;;;5024471;28;20320;-49
2023/10/19 14:16:07;;;;;;;15.95;7.00;;;;;;;;;;5016904;28;20233;-50
2023/10/19 14:18:38;;;;;;;14.20;8.38;;;;;;;;;;4999682;28;20248;-53
2023/10/19 14:21:18;;;;;;;15.15;8.35;;;;;;;;;;5016901;28;20213;-49
2023/10/19 14:23:48;;;;;;;27.95;12.75;;;;;;;;;;5017622;28;20259;-51
2023/10/19 14:26:16;;;;;;;45.75;19.17;;;;;;;;;;5016507;28;20221;-53
2023/10/19 14:28:43;;;;;;;32.58;12.95;;;;;;;;;;5017238;28;20287;-54
2023/10/19 14:31:12;;;;;;;28.63;14.10;;;;;;;;;;5018116;28;20679;-53
2023/10/19 14:33:39;;;;;;;24.08;13.05;;;;;;;;;;5016317;28;20221;-54
2023/10/19 14:36:07;;;;;;;27.20;16.33;;;;;;;;;;5016746;28;20694;-52
2023/10/19 14:38:36;;;;;;;47.08;18.63;;;;;;;;;;5025338;28;20224;-51
2023/10/19 14:41:03;;;;;;;87.28;31.70;;;;;;;;;;5034264;28;20228;-44
2023/10/19 14:43:30;;;;;;;329.80;81.90;;;;;;;;;;5033881;28;20875;-46
2023/10/19 14:45:58;;;;;;;192.32;48.53;;;;;;;;;;5034573;28;20731;-56
2023/10/19 14:48:26;;;;;;;264.30;65.03;;;;;;;;;;5034506;28;20220;-44
2023/10/19 14:50:57;;;;;;;225.30;55.97;;;;;;;;;;5034979;28;20225;-44
2023/10/19 14:53:24;;;;;;;101.63;25.75;;;;;;;;;;5035209;28;20248;-44
2023/10/19 14:55:55;;;;;;;46.08;13.65;;;;;;;;;;5035559;28;20245;-43
2023/10/19 14:58:23;;;;;;;82.50;23.65;;;;;;;;;;5036253;28;20221;-44
2023/10/19 15:00:57;;;;;;;84.00;31.88;;;;;;;;;;5037352;28;20225;-43
2023/10/19 15:03:24;;;;;;;91.38;38.75;;;;;;;;;;5034185;28;20232;-44
2023/10/19 15:05:57;;;;;;;109.90;38.17;;;;;;;;;;5017085;28;20235;-44
2023/10/19 15:08:26;;;;;;;117.90;38.28;;;;;;;;;;5016703;28;20225;-44
2023/10/19 15:10:54;;;;;;;149.63;51.28;;;;;;;;;;5017160;28;20218;-44
2023/10/19 15:13:22;;;;;;;132.77;51.08;;;;;;;;;;5015306;28;20658;-44